Airport View

Enter AWOS ICAO identifier for current METAR.

ex. KFNL

KAAO 111854Z AUTO 19011KT 10SM CLR 09/M05 A3033 RMK AO2 SLP282 T00891050

11 Dec 2019 19:04

Frequency: 134.025

Phone: 316-636-2541

Other Area AWOS: KBEC - K1K1 - KIAB - K3AU

TAF AMD KIAB 111815Z 1118/1224 20012KT 9999 SKC QNH3021INS BECMG 1205/1206 17012KT 9999 SCT006 WS020/21060KT QNH3014INS BECMG 1211/1212 19012KT 9999 BKN027 510053 QNH3009INS BECMG 1217/1218 21015G25KT 9999 BKN020 QNH3010INS BECMG 1222/1223 VRB06KT 9999 SKC QNH3006INS TX10/1121Z TNM03/1211Z